Brown Field Municipal Airport San Diego US
ICAO: KSDM
IATA: SDM
Category: Medium
Scheduled Services: No

Elevation: 526 ft
TransAlt. 18000 ft.

Airport Communications:
SOCAL APP:124.35
ATIS:132.35
CLNC DEL:124.4
CTAF:126.5
SOCAL DEP:125.15
GND:124.4
TWR:126.5
UNICOM:122.95

KSDM Zoom In..

Runways:

(A) RW 08L length 7972 ft width 150 ft
---- / hdg 82

(B) RW 08R length 3180 ft width 150 ft
---- / hdg 82

(C) RW 26L length 3180 ft width 150 ft
---- / hdg 262

(D) RW 26R length 7972 ft width 150 ft
---- / hdg 262

Location; KSDM
Day. 04 / Time. 03.53 Zulu
* Altimeter: 30.21
* Temperature: 12° c. 53.6°f.
* Wind from: 000° Speed 00 kn.
Dewpoint: -08° c.
Visibility: 9 Statute Miles.
Clouds: Clear (automated report).

KSDM 040353Z 00000KT 9SM CLR 12/M08 A3021 RMK AO2 SLP227 T01221083

Going to: --> -->


Wind - Calm.

 
 
jpsmedia worldairports.se 2020   terms of use